Terminal Aerodrome Forecast
Issued by NWS

Home | Current Version | Previous Version | Text Only | Print | Product List | Glossary Off
Versions: 1 2 3 4 5 6 7 8 9 10 11 12 13 14 15

923
FTUS43 KTOP 232335
TAFMHK
TAF
KMHK 232335Z 2400/2424 16008KT P6SM SCT050
     FM241400 17013KT P6SM VCTS SCT050CB=

USA.gov is the U.S. government's official web portal to all federal, state and local government web resources and services.